sensor_id;sensor_type;location;lat;lon;timestamp;P1;durP1;ratioP1;P2;durP2;ratioP2
75429;SDS011;64127;51.488;5.462;2024-01-06T00:00:17;20.23;;;18.13;;
75429;SDS011;64127;51.488;5.462;2024-01-06T00:02:49;20.10;;;17.97;;
75429;SDS011;64127;51.488;5.462;2024-01-06T00:05:21;20.77;;;18.03;;
75429;SDS011;64127;51.488;5.462;2024-01-06T00:07:53;18.73;;;16.80;;
75429;SDS011;64127;51.488;5.462;2024-01-06T00:10:25;17.93;;;16.13;;
75429;SDS011;64127;51.488;5.462;2024-01-06T00:12:57;18.83;;;15.93;;
75429;SDS011;64127;51.488;5.462;2024-01-06T00:15:29;16.93;;;15.30;;
75429;SDS011;64127;51.488;5.462;2024-01-06T00:18:02;16.63;;;14.90;;
75429;SDS011;64127;51.488;5.462;2024-01-06T00:20:34;17.57;;;15.30;;
75429;SDS011;64127;51.488;5.462;2024-01-06T00:23:06;16.47;;;14.87;;
75429;SDS011;64127;51.488;5.462;2024-01-06T00:25:38;16.87;;;15.10;;
75429;SDS011;64127;51.488;5.462;2024-01-06T00:28:10;15.67;;;14.17;;
75429;SDS011;64127;51.488;5.462;2024-01-06T00:30:42;15.90;;;14.27;;
75429;SDS011;64127;51.488;5.462;2024-01-06T00:33:14;16.73;;;15.03;;
75429;SDS011;64127;51.488;5.462;2024-01-06T00:35:47;14.97;;;13.50;;
75429;SDS011;64127;51.488;5.462;2024-01-06T00:38:18;14.83;;;13.33;;
75429;SDS011;64127;51.488;5.462;2024-01-06T00:40:51;15.17;;;13.67;;
75429;SDS011;64127;51.488;5.462;2024-01-06T00:43:23;15.23;;;13.73;;
75429;SDS011;64127;51.488;5.462;2024-01-06T00:45:55;15.27;;;13.77;;
75429;SDS011;64127;51.488;5.462;2024-01-06T00:48:27;15.57;;;14.03;;
75429;SDS011;64127;51.488;5.462;2024-01-06T00:50:59;16.63;;;14.93;;
75429;SDS011;64127;51.488;5.462;2024-01-06T00:53:31;17.07;;;15.47;;
75429;SDS011;64127;51.488;5.462;2024-01-06T00:56:03;18.10;;;16.27;;
75429;SDS011;64127;51.488;5.462;2024-01-06T00:58:36;19.00;;;17.00;;
75429;SDS011;64127;51.488;5.462;2024-01-06T01:01:07;18.87;;;16.97;;
75429;SDS011;64127;51.488;5.462;2024-01-06T01:03:40;20.43;;;18.23;;
75429;SDS011;64127;51.488;5.462;2024-01-06T01:06:12;19.70;;;17.60;;
75429;SDS011;64127;51.488;5.462;2024-01-06T01:08:44;19.57;;;17.60;;
75429;SDS011;64127;51.488;5.462;2024-01-06T01:11:16;20.10;;;17.93;;
75429;SDS011;64127;51.488;5.462;2024-01-06T01:13:48;20.40;;;17.47;;
75429;SDS011;64127;51.488;5.462;2024-01-06T01:16:20;19.23;;;16.97;;
75429;SDS011;64127;51.488;5.462;2024-01-06T01:18:52;20.37;;;18.03;;
75429;SDS011;64127;51.488;5.462;2024-01-06T01:21:25;19.97;;;16.83;;
75429;SDS011;64127;51.488;5.462;2024-01-06T01:23:57;21.00;;;17.33;;
75429;SDS011;64127;51.488;5.462;2024-01-06T01:26:29;18.80;;;16.80;;
75429;SDS011;64127;51.488;5.462;2024-01-06T01:29:01;20.10;;;16.97;;
75429;SDS011;64127;51.488;5.462;2024-01-06T01:31:33;19.33;;;17.23;;
75429;SDS011;64127;51.488;5.462;2024-01-06T01:34:06;19.27;;;17.27;;
75429;SDS011;64127;51.488;5.462;2024-01-06T01:36:38;19.57;;;17.37;;
75429;SDS011;64127;51.488;5.462;2024-01-06T01:39:10;19.47;;;16.93;;
75429;SDS011;64127;51.488;5.462;2024-01-06T01:41:42;19.67;;;17.47;;
75429;SDS011;64127;51.488;5.462;2024-01-06T01:44:15;19.23;;;17.10;;
75429;SDS011;64127;51.488;5.462;2024-01-06T01:46:47;18.27;;;16.37;;
75429;SDS011;64127;51.488;5.462;2024-01-06T01:49:20;18.40;;;16.30;;
75429;SDS011;64127;51.488;5.462;2024-01-06T01:51:52;18.37;;;16.57;;
75429;SDS011;64127;51.488;5.462;2024-01-06T01:54:25;18.53;;;16.60;;
75429;SDS011;64127;51.488;5.462;2024-01-06T01:56:58;17.43;;;15.63;;
75429;SDS011;64127;51.488;5.462;2024-01-06T01:59:30;17.73;;;15.90;;
75429;SDS011;64127;51.488;5.462;2024-01-06T02:02:03;19.43;;;17.33;;
75429;SDS011;64127;51.488;5.462;2024-01-06T02:04:36;18.07;;;16.27;;
75429;SDS011;64127;51.488;5.462;2024-01-06T02:07:08;17.43;;;15.63;;
75429;SDS011;64127;51.488;5.462;2024-01-06T02:09:40;18.40;;;16.43;;
75429;SDS011;64127;51.488;5.462;2024-01-06T02:12:12;16.77;;;15.13;;
75429;SDS011;64127;51.488;5.462;2024-01-06T02:14:44;16.90;;;15.20;;
75429;SDS011;64127;51.488;5.462;2024-01-06T02:17:16;16.50;;;14.77;;
75429;SDS011;64127;51.488;5.462;2024-01-06T02:19:48;17.23;;;15.43;;
75429;SDS011;64127;51.488;5.462;2024-01-06T02:22:20;16.20;;;14.60;;
75429;SDS011;64127;51.488;5.462;2024-01-06T02:24:52;16.97;;;15.17;;
75429;SDS011;64127;51.488;5.462;2024-01-06T02:27:25;15.80;;;14.20;;
75429;SDS011;64127;51.488;5.462;2024-01-06T02:29:57;15.23;;;13.73;;
75429;SDS011;64127;51.488;5.462;2024-01-06T02:32:29;14.77;;;13.27;;
75429;SDS011;64127;51.488;5.462;2024-01-06T02:35:02;15.40;;;13.80;;
75429;SDS011;64127;51.488;5.462;2024-01-06T02:37:34;14.60;;;13.20;;
75429;SDS011;64127;51.488;5.462;2024-01-06T02:40:06;14.37;;;12.87;;
75429;SDS011;64127;51.488;5.462;2024-01-06T02:42:39;14.33;;;12.93;;
75429;SDS011;64127;51.488;5.462;2024-01-06T02:45:11;13.67;;;12.27;;
75429;SDS011;64127;51.488;5.462;2024-01-06T02:47:43;13.10;;;11.70;;
75429;SDS011;64127;51.488;5.462;2024-01-06T02:50:15;13.20;;;12.00;;
75429;SDS011;64127;51.488;5.462;2024-01-06T02:52:47;12.83;;;11.63;;
75429;SDS011;64127;51.488;5.462;2024-01-06T02:55:19;12.23;;;11.03;;
75429;SDS011;64127;51.488;5.462;2024-01-06T02:57:51;11.87;;;10.77;;
75429;SDS011;64127;51.488;5.462;2024-01-06T03:00:23;11.33;;;10.33;;
75429;SDS011;64127;51.488;5.462;2024-01-06T03:02:56;11.13;;;10.13;;
75429;SDS011;64127;51.488;5.462;2024-01-06T03:05:29;11.27;;;10.27;;
75429;SDS011;64127;51.488;5.462;2024-01-06T03:08:01;10.53;;;9.60;;
75429;SDS011;64127;51.488;5.462;2024-01-06T03:10:33;11.10;;;10.00;;
75429;SDS011;64127;51.488;5.462;2024-01-06T03:13:05;12.17;;;10.97;;
75429;SDS011;64127;51.488;5.462;2024-01-06T03:15:37;12.30;;;11.10;;
75429;SDS011;64127;51.488;5.462;2024-01-06T03:18:09;11.47;;;10.40;;
75429;SDS011;64127;51.488;5.462;2024-01-06T03:20:41;11.27;;;10.17;;
75429;SDS011;64127;51.488;5.462;2024-01-06T03:23:13;10.23;;;9.33;;
75429;SDS011;64127;51.488;5.462;2024-01-06T03:25:45;10.77;;;9.77;;
75429;SDS011;64127;51.488;5.462;2024-01-06T03:28:17;10.87;;;9.63;;
75429;SDS011;64127;51.488;5.462;2024-01-06T03:30:49;10.50;;;9.50;;
75429;SDS011;64127;51.488;5.462;2024-01-06T03:33:21;9.53;;;8.73;;
75429;SDS011;64127;51.488;5.462;2024-01-06T03:35:54;9.83;;;8.90;;
75429;SDS011;64127;51.488;5.462;2024-01-06T03:38:25;9.03;;;8.23;;
75429;SDS011;64127;51.488;5.462;2024-01-06T03:40:57;8.87;;;8.07;;
75429;SDS011;64127;51.488;5.462;2024-01-06T03:43:29;8.70;;;7.97;;
75429;SDS011;64127;51.488;5.462;2024-01-06T03:46:02;8.50;;;7.70;;
75429;SDS011;64127;51.488;5.462;2024-01-06T03:48:34;7.67;;;6.97;;
75429;SDS011;64127;51.488;5.462;2024-01-06T03:51:06;7.20;;;6.50;;
75429;SDS011;64127;51.488;5.462;2024-01-06T03:53:39;6.87;;;6.27;;
75429;SDS011;64127;51.488;5.462;2024-01-06T03:56:13;6.60;;;6.10;;
75429;SDS011;64127;51.488;5.462;2024-01-06T03:58:45;6.53;;;5.93;;
75429;SDS011;64127;51.488;5.462;2024-01-06T04:01:18;6.33;;;5.83;;
75429;SDS011;64127;51.488;5.462;2024-01-06T04:03:51;6.10;;;5.60;;
75429;SDS011;64127;51.488;5.462;2024-01-06T04:06:23;6.10;;;5.60;;
75429;SDS011;64127;51.488;5.462;2024-01-06T04:08:55;5.87;;;5.37;;
75429;SDS011;64127;51.488;5.462;2024-01-06T04:11:27;6.50;;;6.00;;
75429;SDS011;64127;51.488;5.462;2024-01-06T04:13:59;6.00;;;5.50;;
75429;SDS011;64127;51.488;5.462;2024-01-06T04:16:31;7.00;;;5.53;;
75429;SDS011;64127;51.488;5.462;2024-01-06T04:19:03;7.03;;;6.43;;
75429;SDS011;64127;51.488;5.462;2024-01-06T04:21:39;6.97;;;6.37;;
75429;SDS011;64127;51.488;5.462;2024-01-06T04:24:11;7.57;;;6.77;;
75429;SDS011;64127;51.488;5.462;2024-01-06T04:26:43;7.27;;;6.70;;
75429;SDS011;64127;51.488;5.462;2024-01-06T04:29:16;7.47;;;6.87;;
75429;SDS011;64127;51.488;5.462;2024-01-06T04:31:48;7.13;;;6.53;;
75429;SDS011;64127;51.488;5.462;2024-01-06T04:34:20;7.57;;;6.87;;
75429;SDS011;64127;51.488;5.462;2024-01-06T04:36:52;7.60;;;6.90;;
75429;SDS011;64127;51.488;5.462;2024-01-06T04:39:25;7.93;;;7.23;;
75429;SDS011;64127;51.488;5.462;2024-01-06T04:41:56;7.77;;;7.07;;
75429;SDS011;64127;51.488;5.462;2024-01-06T04:44:29;7.07;;;6.47;;
75429;SDS011;64127;51.488;5.462;2024-01-06T04:47:01;6.90;;;6.33;;
75429;SDS011;64127;51.488;5.462;2024-01-06T04:49:33;6.90;;;6.30;;
75429;SDS011;64127;51.488;5.462;2024-01-06T04:52:05;6.23;;;5.73;;
75429;SDS011;64127;51.488;5.462;2024-01-06T04:54:37;5.67;;;5.17;;
75429;SDS011;64127;51.488;5.462;2024-01-06T04:57:09;5.73;;;5.13;;
75429;SDS011;64127;51.488;5.462;2024-01-06T04:59:41;5.83;;;5.33;;
75429;SDS011;64127;51.488;5.462;2024-01-06T05:02:13;6.43;;;5.93;;
75429;SDS011;64127;51.488;5.462;2024-01-06T05:04:46;5.97;;;5.47;;
75429;SDS011;64127;51.488;5.462;2024-01-06T05:07:18;6.50;;;5.90;;
75429;SDS011;64127;51.488;5.462;2024-01-06T05:09:50;6.67;;;6.17;;
75429;SDS011;64127;51.488;5.462;2024-01-06T05:12:22;7.07;;;6.43;;
75429;SDS011;64127;51.488;5.462;2024-01-06T05:14:54;7.47;;;6.77;;
75429;SDS011;64127;51.488;5.462;2024-01-06T05:17:26;7.13;;;6.53;;
75429;SDS011;64127;51.488;5.462;2024-01-06T05:19:59;7.57;;;6.87;;
75429;SDS011;64127;51.488;5.462;2024-01-06T05:22:31;6.83;;;6.23;;
75429;SDS011;64127;51.488;5.462;2024-01-06T05:25:04;7.10;;;6.40;;
75429;SDS011;64127;51.488;5.462;2024-01-06T05:27:36;6.83;;;6.33;;
75429;SDS011;64127;51.488;5.462;2024-01-06T05:30:08;6.93;;;6.33;;
75429;SDS011;64127;51.488;5.462;2024-01-06T05:32:40;5.77;;;5.27;;
75429;SDS011;64127;51.488;5.462;2024-01-06T05:35:12;5.90;;;5.40;;
75429;SDS011;64127;51.488;5.462;2024-01-06T05:37:45;5.90;;;5.40;;
75429;SDS011;64127;51.488;5.462;2024-01-06T05:40:17;5.90;;;5.40;;
75429;SDS011;64127;51.488;5.462;2024-01-06T05:42:48;5.83;;;5.33;;
75429;SDS011;64127;51.488;5.462;2024-01-06T05:45:22;5.50;;;5.00;;
75429;SDS011;64127;51.488;5.462;2024-01-06T05:47:57;5.83;;;5.43;;
75429;SDS011;64127;51.488;5.462;2024-01-06T05:50:30;5.90;;;5.40;;
75429;SDS011;64127;51.488;5.462;2024-01-06T05:53:02;5.53;;;5.03;;
75429;SDS011;64127;51.488;5.462;2024-01-06T05:55:34;5.87;;;5.30;;
75429;SDS011;64127;51.488;5.462;2024-01-06T05:58:06;5.17;;;4.77;;
75429;SDS011;64127;51.488;5.462;2024-01-06T06:00:38;5.67;;;5.27;;
75429;SDS011;64127;51.488;5.462;2024-01-06T06:03:10;5.03;;;4.63;;
75429;SDS011;64127;51.488;5.462;2024-01-06T06:05:42;5.60;;;5.00;;
75429;SDS011;64127;51.488;5.462;2024-01-06T06:08:14;5.10;;;4.63;;
75429;SDS011;64127;51.488;5.462;2024-01-06T06:10:46;5.47;;;4.70;;
75429;SDS011;64127;51.488;5.462;2024-01-06T06:13:42;5.00;;;4.60;;
75429;SDS011;64127;51.488;5.462;2024-01-06T06:16:14;5.00;;;4.60;;
75429;SDS011;64127;51.488;5.462;2024-01-06T06:18:46;5.47;;;5.00;;
75429;SDS011;64127;51.488;5.462;2024-01-06T06:21:18;5.63;;;5.03;;
75429;SDS011;64127;51.488;5.462;2024-01-06T06:23:50;5.90;;;5.40;;
75429;SDS011;64127;51.488;5.462;2024-01-06T06:26:22;5.50;;;5.07;;
75429;SDS011;64127;51.488;5.462;2024-01-06T06:28:54;6.03;;;5.43;;
75429;SDS011;64127;51.488;5.462;2024-01-06T06:31:26;5.70;;;5.20;;
75429;SDS011;64127;51.488;5.462;2024-01-06T06:33:58;5.80;;;5.23;;
75429;SDS011;64127;51.488;5.462;2024-01-06T06:36:33;5.53;;;5.03;;
75429;SDS011;64127;51.488;5.462;2024-01-06T06:39:05;4.83;;;4.43;;
75429;SDS011;64127;51.488;5.462;2024-01-06T06:41:37;5.63;;;5.13;;
75429;SDS011;64127;51.488;5.462;2024-01-06T06:44:08;8.07;;;5.63;;
75429;SDS011;64127;51.488;5.462;2024-01-06T06:46:41;5.23;;;4.73;;
75429;SDS011;64127;51.488;5.462;2024-01-06T06:49:13;4.97;;;4.57;;
75429;SDS011;64127;51.488;5.462;2024-01-06T06:51:45;5.60;;;5.10;;
75429;SDS011;64127;51.488;5.462;2024-01-06T06:54:19;5.10;;;4.70;;
75429;SDS011;64127;51.488;5.462;2024-01-06T06:56:52;5.80;;;5.30;;
75429;SDS011;64127;51.488;5.462;2024-01-06T06:59:24;5.67;;;5.10;;
75429;SDS011;64127;51.488;5.462;2024-01-06T07:01:56;5.77;;;5.27;;
75429;SDS011;64127;51.488;5.462;2024-01-06T07:04:29;5.73;;;5.20;;
75429;SDS011;64127;51.488;5.462;2024-01-06T07:07:00;6.17;;;5.63;;
75429;SDS011;64127;51.488;5.462;2024-01-06T07:09:32;6.17;;;5.57;;
75429;SDS011;64127;51.488;5.462;2024-01-06T07:12:05;6.10;;;5.50;;
75429;SDS011;64127;51.488;5.462;2024-01-06T07:14:37;6.10;;;5.60;;
75429;SDS011;64127;51.488;5.462;2024-01-06T07:17:09;6.77;;;6.17;;
75429;SDS011;64127;51.488;5.462;2024-01-06T07:19:41;6.77;;;6.17;;
75429;SDS011;64127;51.488;5.462;2024-01-06T07:22:13;6.87;;;6.20;;
75429;SDS011;64127;51.488;5.462;2024-01-06T07:24:46;6.17;;;5.67;;
75429;SDS011;64127;51.488;5.462;2024-01-06T07:27:18;6.93;;;6.27;;
75429;SDS011;64127;51.488;5.462;2024-01-06T07:29:51;7.50;;;6.80;;
75429;SDS011;64127;51.488;5.462;2024-01-06T07:32:23;7.47;;;6.87;;
75429;SDS011;64127;51.488;5.462;2024-01-06T07:34:56;8.13;;;7.43;;
75429;SDS011;64127;51.488;5.462;2024-01-06T07:37:28;7.27;;;6.57;;
75429;SDS011;64127;51.488;5.462;2024-01-06T07:40:00;8.33;;;7.53;;
75429;SDS011;64127;51.488;5.462;2024-01-06T07:42:32;7.70;;;6.90;;
75429;SDS011;64127;51.488;5.462;2024-01-06T07:45:04;8.80;;;7.80;;
75429;SDS011;64127;51.488;5.462;2024-01-06T07:47:37;8.70;;;7.53;;
75429;SDS011;64127;51.488;5.462;2024-01-06T07:50:10;8.73;;;7.93;;
75429;SDS011;64127;51.488;5.462;2024-01-06T07:52:42;8.53;;;7.73;;
75429;SDS011;64127;51.488;5.462;2024-01-06T07:55:14;8.57;;;7.77;;
75429;SDS011;64127;51.488;5.462;2024-01-06T07:57:46;9.10;;;8.17;;
75429;SDS011;64127;51.488;5.462;2024-01-06T08:00:18;9.33;;;8.43;;
75429;SDS011;64127;51.488;5.462;2024-01-06T08:02:50;8.97;;;8.17;;
75429;SDS011;64127;51.488;5.462;2024-01-06T08:05:22;9.30;;;8.40;;
75429;SDS011;64127;51.488;5.462;2024-01-06T08:07:54;9.10;;;8.27;;
75429;SDS011;64127;51.488;5.462;2024-01-06T08:10:26;9.73;;;8.73;;
75429;SDS011;64127;51.488;5.462;2024-01-06T08:12:58;9.50;;;8.50;;
75429;SDS011;64127;51.488;5.462;2024-01-06T08:15:30;10.00;;;8.90;;
75429;SDS011;64127;51.488;5.462;2024-01-06T08:18:03;9.30;;;8.37;;
75429;SDS011;64127;51.488;5.462;2024-01-06T08:20:36;8.60;;;7.77;;
75429;SDS011;64127;51.488;5.462;2024-01-06T08:23:08;9.23;;;8.33;;
75429;SDS011;64127;51.488;5.462;2024-01-06T08:25:40;9.10;;;8.20;;
75429;SDS011;64127;51.488;5.462;2024-01-06T08:28:12;8.73;;;7.90;;
75429;SDS011;64127;51.488;5.462;2024-01-06T08:30:46;8.90;;;8.03;;
75429;SDS011;64127;51.488;5.462;2024-01-06T08:33:18;8.83;;;8.03;;
75429;SDS011;64127;51.488;5.462;2024-01-06T08:35:50;8.73;;;7.83;;
75429;SDS011;64127;51.488;5.462;2024-01-06T08:38:22;8.97;;;8.07;;
75429;SDS011;64127;51.488;5.462;2024-01-06T08:40:54;9.20;;;8.30;;
75429;SDS011;64127;51.488;5.462;2024-01-06T08:43:26;8.93;;;8.13;;
75429;SDS011;64127;51.488;5.462;2024-01-06T08:45:59;9.17;;;8.27;;
75429;SDS011;64127;51.488;5.462;2024-01-06T08:48:31;9.10;;;8.20;;
75429;SDS011;64127;51.488;5.462;2024-01-06T08:51:06;8.90;;;8.10;;
75429;SDS011;64127;51.488;5.462;2024-01-06T08:53:38;8.43;;;7.63;;
75429;SDS011;64127;51.488;5.462;2024-01-06T08:56:10;8.40;;;7.60;;
75429;SDS011;64127;51.488;5.462;2024-01-06T08:58:42;9.90;;;8.90;;
75429;SDS011;64127;51.488;5.462;2024-01-06T09:01:15;10.07;;;9.03;;
75429;SDS011;64127;51.488;5.462;2024-01-06T09:03:47;11.77;;;8.33;;
75429;SDS011;64127;51.488;5.462;2024-01-06T09:06:20;9.93;;;9.03;;
75429;SDS011;64127;51.488;5.462;2024-01-06T09:08:52;8.97;;;8.07;;
75429;SDS011;64127;51.488;5.462;2024-01-06T09:11:24;9.17;;;8.20;;
75429;SDS011;64127;51.488;5.462;2024-01-06T09:13:56;8.70;;;7.80;;
75429;SDS011;64127;51.488;5.462;2024-01-06T09:16:28;8.83;;;7.63;;
75429;SDS011;64127;51.488;5.462;2024-01-06T09:19:00;9.23;;;8.30;;
75429;SDS011;64127;51.488;5.462;2024-01-06T09:21:32;8.47;;;7.67;;
75429;SDS011;64127;51.488;5.462;2024-01-06T09:24:05;8.93;;;8.03;;
75429;SDS011;64127;51.488;5.462;2024-01-06T09:26:38;8.77;;;7.97;;
75429;SDS011;64127;51.488;5.462;2024-01-06T09:29:10;8.57;;;7.77;;
75429;SDS011;64127;51.488;5.462;2024-01-06T09:31:43;8.77;;;7.93;;
75429;SDS011;64127;51.488;5.462;2024-01-06T09:34:15;9.67;;;8.67;;
75429;SDS011;64127;51.488;5.462;2024-01-06T09:36:47;9.10;;;8.20;;
75429;SDS011;64127;51.488;5.462;2024-01-06T09:39:20;8.47;;;7.73;;
75429;SDS011;64127;51.488;5.462;2024-01-06T09:41:52;9.00;;;8.10;;
75429;SDS011;64127;51.488;5.462;2024-01-06T09:44:24;9.17;;;8.23;;
75429;SDS011;64127;51.488;5.462;2024-01-06T09:46:56;8.53;;;7.63;;
75429;SDS011;64127;51.488;5.462;2024-01-06T09:49:33;8.47;;;7.67;;
75429;SDS011;64127;51.488;5.462;2024-01-06T09:52:14;8.67;;;7.73;;
75429;SDS011;64127;51.488;5.462;2024-01-06T09:54:52;9.17;;;8.30;;
75429;SDS011;64127;51.488;5.462;2024-01-06T09:57:27;7.60;;;6.80;;
75429;SDS011;64127;51.488;5.462;2024-01-06T09:59:59;7.80;;;7.10;;
75429;SDS011;64127;51.488;5.462;2024-01-06T10:02:32;7.27;;;6.67;;
75429;SDS011;64127;51.488;5.462;2024-01-06T10:05:05;7.87;;;7.17;;
75429;SDS011;64127;51.488;5.462;2024-01-06T10:07:38;7.33;;;6.60;;
75429;SDS011;64127;51.488;5.462;2024-01-06T10:10:12;8.03;;;7.10;;
75429;SDS011;64127;51.488;5.462;2024-01-06T10:12:45;7.70;;;6.97;;
75429;SDS011;64127;51.488;5.462;2024-01-06T10:15:17;8.23;;;7.43;;
75429;SDS011;64127;51.488;5.462;2024-01-06T10:17:53;7.70;;;7.00;;
75429;SDS011;64127;51.488;5.462;2024-01-06T10:20:26;7.63;;;6.87;;
75429;SDS011;64127;51.488;5.462;2024-01-06T10:22:58;8.93;;;7.40;;
75429;SDS011;64127;51.488;5.462;2024-01-06T10:25:37;7.77;;;7.07;;
75429;SDS011;64127;51.488;5.462;2024-01-06T10:28:12;7.37;;;6.67;;
75429;SDS011;64127;51.488;5.462;2024-01-06T10:30:47;8.23;;;7.23;;
75429;SDS011;64127;51.488;5.462;2024-01-06T10:33:22;7.23;;;6.63;;
75429;SDS011;64127;51.488;5.462;2024-01-06T10:35:57;7.60;;;6.90;;
75429;SDS011;64127;51.488;5.462;2024-01-06T10:38:32;7.73;;;6.93;;
75429;SDS011;64127;51.488;5.462;2024-01-06T10:41:05;8.03;;;7.23;;
75429;SDS011;64127;51.488;5.462;2024-01-06T10:43:41;7.70;;;7.00;;
75429;SDS011;64127;51.488;5.462;2024-01-06T10:46:15;7.60;;;6.90;;
75429;SDS011;64127;51.488;5.462;2024-01-06T10:48:50;7.87;;;7.07;;
75429;SDS011;64127;51.488;5.462;2024-01-06T10:51:23;7.87;;;7.17;;
75429;SDS011;64127;51.488;5.462;2024-01-06T10:54:00;8.10;;;7.33;;
75429;SDS011;64127;51.488;5.462;2024-01-06T10:56:37;8.33;;;7.53;;
75429;SDS011;64127;51.488;5.462;2024-01-06T10:59:12;7.57;;;6.87;;
75429;SDS011;64127;51.488;5.462;2024-01-06T11:01:46;8.63;;;6.97;;
75429;SDS011;64127;51.488;5.462;2024-01-06T11:04:20;8.27;;;7.47;;
75429;SDS011;64127;51.488;5.462;2024-01-06T11:06:53;7.27;;;6.67;;
75429;SDS011;64127;51.488;5.462;2024-01-06T11:09:27;7.90;;;6.93;;
75429;SDS011;64127;51.488;5.462;2024-01-06T11:12:06;6.80;;;6.20;;
75429;SDS011;64127;51.488;5.462;2024-01-06T11:14:39;7.50;;;6.80;;
75429;SDS011;64127;51.488;5.462;2024-01-06T11:17:11;7.47;;;6.67;;
75429;SDS011;64127;51.488;5.462;2024-01-06T11:19:43;8.07;;;7.13;;
75429;SDS011;64127;51.488;5.462;2024-01-06T11:25:08;7.17;;;6.53;;
75429;SDS011;64127;51.488;5.462;2024-01-06T11:27:49;7.63;;;6.93;;
75429;SDS011;64127;51.488;5.462;2024-01-06T11:30:22;7.83;;;6.93;;
75429;SDS011;64127;51.488;5.462;2024-01-06T11:32:57;7.27;;;6.37;;
75429;SDS011;64127;51.488;5.462;2024-01-06T11:35:32;7.10;;;6.40;;
75429;SDS011;64127;51.488;5.462;2024-01-06T11:38:06;7.47;;;6.77;;
75429;SDS011;64127;51.488;5.462;2024-01-06T11:40:38;7.60;;;6.90;;
75429;SDS011;64127;51.488;5.462;2024-01-06T11:43:11;8.43;;;6.87;;
75429;SDS011;64127;51.488;5.462;2024-01-06T11:45:44;7.27;;;6.57;;
75429;SDS011;64127;51.488;5.462;2024-01-06T11:48:16;7.40;;;6.70;;
75429;SDS011;64127;51.488;5.462;2024-01-06T11:50:51;6.47;;;5.73;;
75429;SDS011;64127;51.488;5.462;2024-01-06T11:53:23;6.50;;;5.90;;
75429;SDS011;64127;51.488;5.462;2024-01-06T11:55:59;6.00;;;5.50;;
75429;SDS011;64127;51.488;5.462;2024-01-06T11:58:31;6.70;;;6.00;;
75429;SDS011;64127;51.488;5.462;2024-01-06T12:01:05;6.03;;;5.47;;
75429;SDS011;64127;51.488;5.462;2024-01-06T12:03:37;7.07;;;5.93;;
75429;SDS011;64127;51.488;5.462;2024-01-06T12:06:09;6.63;;;6.03;;
75429;SDS011;64127;51.488;5.462;2024-01-06T12:08:41;6.57;;;5.80;;
75429;SDS011;64127;51.488;5.462;2024-01-06T12:11:13;6.57;;;5.80;;
75429;SDS011;64127;51.488;5.462;2024-01-06T12:13:52;6.67;;;5.87;;
75429;SDS011;64127;51.488;5.462;2024-01-06T12:16:24;6.13;;;5.50;;
75429;SDS011;64127;51.488;5.462;2024-01-06T12:19:00;6.33;;;5.77;;
75429;SDS011;64127;51.488;5.462;2024-01-06T12:21:35;6.50;;;5.80;;
75429;SDS011;64127;51.488;5.462;2024-01-06T12:24:14;7.20;;;6.50;;
75429;SDS011;64127;51.488;5.462;2024-01-06T12:26:51;7.03;;;6.30;;
75429;SDS011;64127;51.488;5.462;2024-01-06T12:29:26;7.70;;;6.47;;
75429;SDS011;64127;51.488;5.462;2024-01-06T12:32:03;7.47;;;6.10;;
75429;SDS011;64127;51.488;5.462;2024-01-06T12:34:36;7.10;;;6.40;;
75429;SDS011;64127;51.488;5.462;2024-01-06T12:37:10;6.83;;;6.23;;
75429;SDS011;64127;51.488;5.462;2024-01-06T12:39:45;6.97;;;6.30;;
75429;SDS011;64127;51.488;5.462;2024-01-06T12:42:19;7.40;;;6.70;;
75429;SDS011;64127;51.488;5.462;2024-01-06T12:44:53;7.57;;;6.57;;
75429;SDS011;64127;51.488;5.462;2024-01-06T12:47:25;7.20;;;6.50;;
75429;SDS011;64127;51.488;5.462;2024-01-06T12:49:57;7.47;;;6.77;;
75429;SDS011;64127;51.488;5.462;2024-01-06T12:52:29;7.67;;;6.97;;
75429;SDS011;64127;51.488;5.462;2024-01-06T12:55:01;7.83;;;7.13;;
75429;SDS011;64127;51.488;5.462;2024-01-06T12:57:35;8.33;;;7.47;;
75429;SDS011;64127;51.488;5.462;2024-01-06T13:00:07;8.43;;;7.63;;
75429;SDS011;64127;51.488;5.462;2024-01-06T13:02:42;8.20;;;7.50;;
75429;SDS011;64127;51.488;5.462;2024-01-06T13:05:14;8.60;;;7.70;;
75429;SDS011;64127;51.488;5.462;2024-01-06T13:07:47;8.20;;;7.40;;
75429;SDS011;64127;51.488;5.462;2024-01-06T13:10:20;8.87;;;7.93;;
75429;SDS011;64127;51.488;5.462;2024-01-06T13:12:52;8.17;;;7.43;;
75429;SDS011;64127;51.488;5.462;2024-01-06T13:15:24;9.10;;;7.70;;
75429;SDS011;64127;51.488;5.462;2024-01-06T13:17:56;9.43;;;8.20;;
75429;SDS011;64127;51.488;5.462;2024-01-06T13:20:29;7.93;;;7.13;;
75429;SDS011;64127;51.488;5.462;2024-01-06T13:23:01;6.63;;;5.90;;
75429;SDS011;64127;51.488;5.462;2024-01-06T13:25:33;6.40;;;5.83;;
75429;SDS011;64127;51.488;5.462;2024-01-06T13:28:06;6.70;;;5.53;;
75429;SDS011;64127;51.488;5.462;2024-01-06T13:30:39;6.00;;;5.50;;
75429;SDS011;64127;51.488;5.462;2024-01-06T13:33:12;6.07;;;5.40;;
75429;SDS011;64127;51.488;5.462;2024-01-06T13:35:45;5.47;;;5.00;;
75429;SDS011;64127;51.488;5.462;2024-01-06T13:38:17;5.67;;;5.17;;
75429;SDS011;64127;51.488;5.462;2024-01-06T13:40:49;5.67;;;5.17;;
75429;SDS011;64127;51.488;5.462;2024-01-06T13:43:21;5.73;;;5.23;;
75429;SDS011;64127;51.488;5.462;2024-01-06T13:45:53;5.73;;;5.23;;
75429;SDS011;64127;51.488;5.462;2024-01-06T13:48:25;6.07;;;5.57;;
75429;SDS011;64127;51.488;5.462;2024-01-06T13:50:57;5.57;;;5.07;;
75429;SDS011;64127;51.488;5.462;2024-01-06T13:53:30;6.20;;;4.93;;
75429;SDS011;64127;51.488;5.462;2024-01-06T13:56:02;5.07;;;4.63;;
75429;SDS011;64127;51.488;5.462;2024-01-06T13:58:35;5.17;;;4.77;;
75429;SDS011;64127;51.488;5.462;2024-01-06T14:01:09;5.00;;;4.50;;
75429;SDS011;64127;51.488;5.462;2024-01-06T14:03:43;5.20;;;4.70;;
75429;SDS011;64127;51.488;5.462;2024-01-06T14:06:15;5.00;;;4.60;;
75429;SDS011;64127;51.488;5.462;2024-01-06T14:08:50;5.23;;;4.70;;
75429;SDS011;64127;51.488;5.462;2024-01-06T14:11:23;4.90;;;4.40;;
75429;SDS011;64127;51.488;5.462;2024-01-06T14:13:57;5.40;;;4.90;;
75429;SDS011;64127;51.488;5.462;2024-01-06T14:16:29;5.13;;;4.40;;
75429;SDS011;64127;51.488;5.462;2024-01-06T14:19:02;4.93;;;4.53;;
75429;SDS011;64127;51.488;5.462;2024-01-06T14:21:34;6.53;;;5.90;;
75429;SDS011;64127;51.488;5.462;2024-01-06T14:24:06;5.87;;;5.20;;
75429;SDS011;64127;51.488;5.462;2024-01-06T14:26:38;7.30;;;5.70;;
75429;SDS011;64127;51.488;5.462;2024-01-06T14:29:13;5.83;;;5.33;;
75429;SDS011;64127;51.488;5.462;2024-01-06T14:31:48;5.53;;;5.03;;
75429;SDS011;64127;51.488;5.462;2024-01-06T14:34:20;6.03;;;5.50;;
75429;SDS011;64127;51.488;5.462;2024-01-06T14:36:52;6.27;;;5.67;;
75429;SDS011;64127;51.488;5.462;2024-01-06T14:39:25;6.53;;;5.93;;
75429;SDS011;64127;51.488;5.462;2024-01-06T14:41:57;6.50;;;5.80;;
75429;SDS011;64127;51.488;5.462;2024-01-06T14:44:29;7.30;;;6.57;;
75429;SDS011;64127;51.488;5.462;2024-01-06T14:47:01;7.80;;;6.30;;
75429;SDS011;64127;51.488;5.462;2024-01-06T14:49:33;6.67;;;6.07;;
75429;SDS011;64127;51.488;5.462;2024-01-06T14:52:05;7.03;;;6.20;;
75429;SDS011;64127;51.488;5.462;2024-01-06T14:54:38;6.97;;;6.17;;
75429;SDS011;64127;51.488;5.462;2024-01-06T14:57:10;7.43;;;6.73;;
75429;SDS011;64127;51.488;5.462;2024-01-06T14:59:42;6.83;;;6.23;;
75429;SDS011;64127;51.488;5.462;2024-01-06T15:02:14;7.20;;;6.50;;
75429;SDS011;64127;51.488;5.462;2024-01-06T15:04:47;6.67;;;6.03;;
75429;SDS011;64127;51.488;5.462;2024-01-06T15:07:19;7.20;;;6.50;;
75429;SDS011;64127;51.488;5.462;2024-01-06T15:09:51;8.43;;;7.40;;
75429;SDS011;64127;51.488;5.462;2024-01-06T15:12:23;7.57;;;6.80;;
75429;SDS011;64127;51.488;5.462;2024-01-06T15:14:55;9.03;;;7.10;;